Tramper — PHAA — position and weather

sailwx.info

Track history (hours):
 
Tides and Currents Weather Stations Pressure Air Temp Water Temp Dewpoint Dewpoint Depression Visibility Wind Speed Wind Dir Waves Ship Positions

Tramper

Last reported at 2016-Dec-08 01:34 UTC. Time now 2016-Dec-08 02:06 UTC.
Position N 51°28' E 000°21'.

Length 101 m; beam 20 m.

Type: Cargo ship. MMSI: 245867000.

Date/timePositionNaut miles runAvg speedWind from/ knotsBaromVisibWave heightAir tempDewpointWater temp
2016-Dec-08 01:34N 51°28' E 000°21'0 0.0
2016-Dec-08 00:34N 51°28' E 000°21'0 0.0
2016-Dec-07 23:34N 51°28' E 000°21'0 0.0
2016-Dec-07 22:34N 51°28' E 000°21'0 0.0
2016-Dec-07 21:34N 51°28' E 000°21'0 0.0
2016-Dec-07 20:34N 51°28' E 000°21'0 0.0
2016-Dec-07 19:34N 51°28' E 000°21'0 0.0
2016-Dec-07 18:34N 51°28' E 000°21'0 0.0
2016-Dec-07 17:34N 51°28' E 000°21'0 0.0
2016-Dec-07 16:34N 51°28' E 000°21'0 0.0
2016-Dec-07 15:34N 51°28' E 000°21'0 0.0
2016-Dec-07 14:34N 51°28' E 000°21'0 0.0
2016-Dec-07 13:34N 51°28' E 000°21'0 0.0
2016-Dec-07 12:34N 51°28' E 000°21'0 0.0
2016-Dec-07 11:34N 51°28' E 000°21'0 0.0
2016-Dec-07 10:34N 51°28' E 000°21'0 0.0
2016-Dec-07 09:34N 51°28' E 000°21'0 0.0
2016-Dec-07 08:34N 51°28' E 000°21'0 0.0
2016-Dec-07 07:34N 51°28' E 000°21'0 0.0
2016-Dec-07 06:34N 51°28' E 000°21'0 0.0
2016-Dec-07 05:34N 51°28' E 000°21'0 0.0
2016-Dec-07 04:34N 51°28' E 000°21'0 0.0
2016-Dec-07 03:34N 51°28' E 000°21'0 0.0
2016-Dec-07 02:34N 51°28' E 000°21'0 0.0
2016-Dec-07 01:34N 51°28' E 000°21'0 0.3
2016-Dec-07 00:34N 51°27' E 000°20'1 1.4
2016-Dec-06 23:34N 51°27' E 000°23'7 7.1
2016-Dec-06 22:33N 51°30' E 000°33'7 7.2
2016-Dec-06 21:33N 51°30' E 000°44'7 7.0
2016-Dec-06 20:34N 51°29' E 000°55'16 8.2
2016-Dec-06 18:33N 51°28' E 001°22'8 8.3
2016-Dec-06 17:33N 51°24' E 001°33'5 5.1
2016-Dec-06 16:33N 51°23' E 001°41'6 5.8
2016-Dec-06 15:33N 51°28' E 001°47'8 8.3
2016-Dec-06 14:33N 51°32' E 001°57'8 8.3
2016-Dec-06 13:33N 51°37' E 002°08'9 8.5
2016-Dec-06 12:33N 51°43' E 002°19'9 8.6
2016-Dec-06 11:33N 51°49' E 002°28'10 9.9
2016-Dec-06 10:33N 51°56' E 002°39'1111.1
2016-Dec-06 09:33N 52°02' E 002°55'1515.3
2016-Dec-06 08:33N 52°03' E 003°19'1514.7
2016-Dec-06 07:34N 52°04' E 003°43'1212.2
2016-Dec-06 06:33N 51°60' E 004°02'1010.5
2016-Dec-06 05:33N 51°54' E 004°16'4 4.0
2016-Dec-06 04:33N 51°54' E 004°23'0 0.0
2016-Dec-06 03:33N 51°54' E 004°23'0 0.0
2016-Dec-06 02:33N 51°54' E 004°23'0 0.0
2016-Dec-06 01:33N 51°54' E 004°23'0 0.0
2016-Dec-06 00:33N 51°54' E 004°23'0 0.0
2016-Dec-05 23:33N 51°54' E 004°23'0 0.0
2016-Dec-05 22:33N 51°54' E 004°23'0 0.0
2016-Dec-05 21:33N 51°54' E 004°23'0 0.0
2016-Dec-05 20:33N 51°54' E 004°23'0 0.0
2016-Dec-05 19:33N 51°54' E 004°23'0 0.0
2016-Dec-05 18:33N 51°54' E 004°23'0 0.0
2016-Dec-05 17:33N 51°54' E 004°23'0 0.0
2016-Dec-05 16:33N 51°54' E 004°23'0 0.0
2016-Dec-05 15:33N 51°54' E 004°23'0 0.0
2016-Dec-05 14:33N 51°54' E 004°23'0 0.0
2016-Dec-05 13:33N 51°54' E 004°23'0 0.0
2016-Dec-05 12:33N 51°54' E 004°23'0 0.0
2016-Dec-05 11:33N 51°54' E 004°23'0 0.0
2016-Dec-05 10:33N 51°54' E 004°23'0 0.0
2016-Dec-05 09:33N 51°54' E 004°23'0 0.0
2016-Dec-05 08:33N 51°54' E 004°23'0 0.0
2016-Dec-05 07:33N 51°54' E 004°23'0 0.0
2016-Dec-05 06:33N 51°54' E 004°23'0 0.0
2016-Dec-05 05:33N 51°54' E 004°23'0 0.0
2016-Dec-05 04:33N 51°54' E 004°23'0 0.0
2016-Dec-05 03:33N 51°54' E 004°23'0 0.0
2016-Dec-05 02:30N 51°54' E 004°23'2 2.6
2016-Dec-05 01:33N 51°54' E 004°19'1111.4
2016-Dec-05 00:33N 51°59' E 004°03'1111.0
2016-Dec-04 23:33N 51°60' E 003°45'1110.8
2016-Dec-04 22:33N 51°56' E 003°28'7 6.7
2016-Dec-04 21:33N 51°51' E 003°21'9 9.5
2016-Dec-04 20:33N 51°41' E 003°18'1312.7
2016-Dec-04 19:33N 51°30' E 003°28'1110.6
2016-Dec-04 18:34N 51°24' E 003°43'7 6.6
2016-Dec-04 17:33N 51°19' E 003°49'6 5.8
2016-Dec-04 16:34N 51°14' E 003°48'3 3.0
2016-Dec-04 15:32N 51°11' E 003°48'0 0.0
2016-Dec-04 14:32N 51°11' E 003°48'0 0.0
2016-Dec-04 13:32N 51°11' E 003°48'0 0.0
2016-Dec-04 12:32N 51°11' E 003°48'0 0.0
2016-Dec-04 11:32N 51°11' E 003°48'0 0.0
2016-Dec-04 10:32N 51°11' E 003°48'0 0.0
2016-Dec-04 09:32N 51°11' E 003°48'0 0.0
2016-Dec-04 08:26N 51°11' E 003°48'0 0.0
2016-Dec-04 07:32N 51°11' E 003°48'0 0.0
2016-Dec-04 06:32N 51°11' E 003°48'0 0.0
2016-Dec-04 05:32N 51°11' E 003°48'0 0.0
2016-Dec-04 04:32N 51°11' E 003°48'0 0.0
2016-Dec-04 03:32N 51°11' E 003°48'0 0.0
2016-Dec-04 02:32N 51°11' E 003°48'0 0.0
2016-Dec-04 01:32N 51°11' E 003°48'0 0.0
2016-Dec-04 00:32N 51°11' E 003°48'0 0.0
2016-Dec-03 23:32N 51°11' E 003°48'0 0.0
2016-Dec-03 22:32N 51°11' E 003°48'0 0.0
2016-Dec-03 21:32N 51°11' E 003°48'0 0.0
2016-Dec-03 20:32N 51°11' E 003°48'0 0.0
2016-Dec-03 19:32N 51°11' E 003°48'0 0.0
2016-Dec-03 18:32N 51°11' E 003°48'0 0.0
2016-Dec-03 17:32N 51°11' E 003°48'0 0.0
2016-Dec-03 16:32N 51°11' E 003°48'0 0.0
2016-Dec-03 15:32N 51°11' E 003°48'0 0.0
2016-Dec-03 14:32N 51°11' E 003°48'0 0.0
2016-Dec-03 13:32N 51°11' E 003°48'0 0.0
2016-Dec-03 12:32N 51°11' E 003°48'0 0.0
2016-Dec-03 11:32N 51°11' E 003°48'0 0.0
2016-Dec-03 10:23N 51°11' E 003°48'0 0.0
2016-Dec-03 09:32N 51°11' E 003°48'0 0.0
2016-Dec-03 08:32N 51°11' E 003°48'0 0.0
2016-Dec-03 07:32N 51°11' E 003°48'0 0.0
2016-Dec-03 06:32N 51°11' E 003°48'0 0.0
2016-Dec-03 05:32N 51°11' E 003°48'0 0.0
2016-Dec-03 04:32N 51°11' E 003°48'0 0.0
2016-Dec-03 03:32N 51°11' E 003°48'0 0.0
2016-Dec-03 02:32N 51°11' E 003°48'0 0.0
2016-Dec-03 01:29N 51°11' E 003°48'0 0.0
2016-Dec-03 00:29N 51°11' E 003°48'0 0.0
2016-Dec-02 23:32N 51°11' E 003°48'0 0.0
2016-Dec-02 22:32N 51°11' E 003°48'0 0.0
2016-Dec-02 21:32N 51°11' E 003°48'0 0.0
2016-Dec-02 20:32N 51°11' E 003°48'0 0.0
2016-Dec-02 19:32N 51°11' E 003°48'0 0.0
2016-Dec-02 18:26N 51°11' E 003°48'0 0.0
2016-Dec-02 17:32N 51°11' E 003°48'0 0.0
2016-Dec-02 16:32N 51°11' E 003°48'0 0.0
2016-Dec-02 15:32N 51°11' E 003°48'0 0.0
2016-Dec-02 14:32N 51°11' E 003°48'0 0.0
2016-Dec-02 13:32N 51°11' E 003°48'0 0.0
2016-Dec-02 12:32N 51°11' E 003°48'0 0.0
2016-Dec-02 11:29N 51°11' E 003°48'0 0.0
2016-Dec-02 10:32N 51°11' E 003°48'0 0.0
2016-Dec-02 09:32N 51°11' E 003°48'0 0.0
2016-Dec-02 08:32N 51°11' E 003°48'1 0.8
2016-Dec-02 07:34N 51°10' E 003°47'1 0.5
2016-Dec-02 06:33N 51°09' E 003°47'0 0.0
2016-Dec-02 05:33N 51°09' E 003°47'0 0.0
2016-Dec-02 04:33N 51°09' E 003°47'0 0.0
2016-Dec-02 03:33N 51°09' E 003°47'0 0.0
2016-Dec-02 02:33N 51°09' E 003°47'0 0.0
2016-Dec-02 01:33N 51°09' E 003°47'0 0.0
2016-Dec-02 00:33N 51°09' E 003°47'0 0.0
2016-Dec-01 23:33N 51°09' E 003°47'0 0.0
2016-Dec-01 22:33N 51°09' E 003°47'0 0.0
2016-Dec-01 21:33N 51°09' E 003°47'0 0.0
2016-Dec-01 20:30N 51°09' E 003°47'0 0.0
2016-Dec-01 19:30N 51°09' E 003°47'0 0.0
2016-Dec-01 18:33N 51°09' E 003°47'0 0.0
2016-Dec-01 17:33N 51°09' E 003°47'0 0.0
2016-Dec-01 16:33N 51°09' E 003°47'0 0.0
2016-Dec-01 15:30N 51°09' E 003°47'0 0.0
2016-Dec-01 14:33N 51°09' E 003°47'0 0.0
2016-Dec-01 13:33N 51°09' E 003°47'0 0.0
2016-Dec-01 12:33N 51°09' E 003°47'0 0.0
2016-Dec-01 11:33N 51°09' E 003°47'0 0.0
2016-Dec-01 10:33N 51°09' E 003°47'0 0.0
2016-Dec-01 09:33N 51°09' E 003°47'0 0.0
2016-Dec-01 08:33N 51°09' E 003°47'0 0.0
2016-Dec-01 07:33N 51°09' E 003°47'0 0.0
2016-Dec-01 06:33N 51°09' E 003°47'0 0.0
2016-Dec-01 05:33N 51°09' E 003°47'0 0.0
2016-Dec-01 04:33N 51°09' E 003°47'0 0.0
2016-Dec-01 03:33N 51°09' E 003°47'0 0.0
2016-Dec-01 02:33N 51°09' E 003°47'0 0.1
2016-Dec-01 01:34N 51°09' E 003°47'7 7.3
2016-Dec-01 00:34N 51°16' E 003°50'3 3.4
2016-Nov-30 23:34N 51°20' E 003°49'1 1.2
2016-Nov-30 22:34N 51°21' E 003°48'9 8.7
2016-Nov-30 21:33N 51°26' E 003°37'1211.9
2016-Nov-30 20:34N 51°24' E 003°18'1312.8
2016-Nov-30 19:33N 51°23' E 002°58'1211.8
2016-Nov-30 18:33N 51°22' E 002°39'5 4.7
2016-Nov-30 17:33N 51°22' E 002°32'7 6.7
2016-Nov-30 16:33N 51°19' E 002°21'1111.3
2016-Nov-30 15:33N 51°14' E 002°06'1616.3
2016-Nov-30 14:33N 51°05' E 001°44'1717.3
2016-Nov-30 13:33N 50°51' E 001°27'4615.4
2016-Nov-30 10:33N 50°24' E 000°27'1716.9
2016-Nov-30 09:33N 50°21' E 000°01'1717.5
2016-Nov-30 08:33N 50°16' W 000°25'1817.8
2016-Nov-30 07:34N 50°11' W 000°52'1717.4
2016-Nov-30 06:33N 50°07' W 001°18'1616.3
2016-Nov-30 05:33N 50°03' W 001°43'1515.0
2016-Nov-30 04:33N 49°58' W 002°05'1413.7
2016-Nov-30 03:33N 49°54' W 002°25'1313.0
2016-Nov-30 02:33N 49°51' W 002°45'1312.8
2016-Nov-30 01:33N 49°45' W 003°03'1313.0
2016-Nov-30 00:33N 49°39' W 003°20'1313.0
2016-Nov-29 23:33N 49°32' W 003°37'1312.8
2016-Nov-29 22:32N 49°26' W 003°55'1212.7
2016-Nov-29 21:33N 49°19' W 004°11'1212.5
2016-Nov-29 20:33N 49°13' W 004°28'1512.5
2016-Nov-29 19:22N 49°07' W 004°48'1012.9
2016-Nov-29 18:33N 49°02' W 005°02'1313.3
2016-Nov-29 17:33N 48°55' W 005°19'1413.9
2016-Nov-29 16:33N 48°47' W 005°36'4314.4
2016-Nov-29 13:33N 48°09' W 006°08'18913.9
2016-Nov-29 00:00N 45°18' W 008°06'   060 / 181020.310.8 11.5 4.7
Track history (hours):
 
Tides and Currents Weather Stations Pressure Air Temp Water Temp Dewpoint Dewpoint Depression Visibility Wind Speed Wind Dir Waves Ship Positions

Tramper

Last reported at 2016-Dec-08 01:34 UTC. Time now 2016-Dec-08 02:06 UTC.
Position N 51°28' E 000°21'.

Length 101 m; beam 20 m.

Type: Cargo ship. MMSI: 245867000.

Date/timePositionNaut miles runAvg speedWind from/ knotsBaromVisibWave heightAir tempDewpointWater temp
2016-Dec-08 01:34N 51°28' E 000°21'0 0.0
2016-Dec-08 00:34N 51°28' E 000°21'0 0.0
2016-Dec-07 23:34N 51°28' E 000°21'0 0.0
2016-Dec-07 22:34N 51°28' E 000°21'0 0.0
2016-Dec-07 21:34N 51°28' E 000°21'0 0.0
2016-Dec-07 20:34N 51°28' E 000°21'0 0.0
2016-Dec-07 19:34N 51°28' E 000°21'0 0.0
2016-Dec-07 18:34N 51°28' E 000°21'0 0.0
2016-Dec-07 17:34N 51°28' E 000°21'0 0.0
2016-Dec-07 16:34N 51°28' E 000°21'0 0.0
2016-Dec-07 15:34N 51°28' E 000°21'0 0.0
2016-Dec-07 14:34N 51°28' E 000°21'0 0.0
2016-Dec-07 13:34N 51°28' E 000°21'0 0.0
2016-Dec-07 12:34N 51°28' E 000°21'0 0.0
2016-Dec-07 11:34N 51°28' E 000°21'0 0.0
2016-Dec-07 10:34N 51°28' E 000°21'0 0.0
2016-Dec-07 09:34N 51°28' E 000°21'0 0.0
2016-Dec-07 08:34N 51°28' E 000°21'0 0.0
2016-Dec-07 07:34N 51°28' E 000°21'0 0.0
2016-Dec-07 06:34N 51°28' E 000°21'0 0.0
2016-Dec-07 05:34N 51°28' E 000°21'0 0.0
2016-Dec-07 04:34N 51°28' E 000°21'0 0.0
2016-Dec-07 03:34N 51°28' E 000°21'0 0.0
2016-Dec-07 02:34N 51°28' E 000°21'0 0.0
2016-Dec-07 01:34N 51°28' E 000°21'0 0.3
2016-Dec-07 00:34N 51°27' E 000°20'1 1.4
2016-Dec-06 23:34N 51°27' E 000°23'7 7.1
2016-Dec-06 22:33N 51°30' E 000°33'7 7.2
2016-Dec-06 21:33N 51°30' E 000°44'7 7.0
2016-Dec-06 20:34N 51°29' E 000°55'16 8.2
2016-Dec-06 18:33N 51°28' E 001°22'8 8.3
2016-Dec-06 17:33N 51°24' E 001°33'5 5.1
2016-Dec-06 16:33N 51°23' E 001°41'6 5.8
2016-Dec-06 15:33N 51°28' E 001°47'8 8.3
2016-Dec-06 14:33N 51°32' E 001°57'8 8.3
2016-Dec-06 13:33N 51°37' E 002°08'9 8.5
2016-Dec-06 12:33N 51°43' E 002°19'9 8.6
2016-Dec-06 11:33N 51°49' E 002°28'10 9.9
2016-Dec-06 10:33N 51°56' E 002°39'1111.1
2016-Dec-06 09:33N 52°02' E 002°55'1515.3
2016-Dec-06 08:33N 52°03' E 003°19'1514.7
2016-Dec-06 07:34N 52°04' E 003°43'1212.2
2016-Dec-06 06:33N 51°60' E 004°02'1010.5
2016-Dec-06 05:33N 51°54' E 004°16'4 4.0
2016-Dec-06 04:33N 51°54' E 004°23'0 0.0
2016-Dec-06 03:33N 51°54' E 004°23'0 0.0
2016-Dec-06 02:33N 51°54' E 004°23'0 0.0
2016-Dec-06 01:33N 51°54' E 004°23'0 0.0
2016-Dec-06 00:33N 51°54' E 004°23'0 0.0
2016-Dec-05 23:33N 51°54' E 004°23'0 0.0
2016-Dec-05 22:33N 51°54' E 004°23'0 0.0
2016-Dec-05 21:33N 51°54' E 004°23'0 0.0
2016-Dec-05 20:33N 51°54' E 004°23'0 0.0
2016-Dec-05 19:33N 51°54' E 004°23'0 0.0
2016-Dec-05 18:33N 51°54' E 004°23'0 0.0
2016-Dec-05 17:33N 51°54' E 004°23'0 0.0
2016-Dec-05 16:33N 51°54' E 004°23'0 0.0
2016-Dec-05 15:33N 51°54' E 004°23'0 0.0
2016-Dec-05 14:33N 51°54' E 004°23'0 0.0
2016-Dec-05 13:33N 51°54' E 004°23'0 0.0
2016-Dec-05 12:33N 51°54' E 004°23'0 0.0
2016-Dec-05 11:33N 51°54' E 004°23'0 0.0
2016-Dec-05 10:33N 51°54' E 004°23'0 0.0
2016-Dec-05 09:33N 51°54' E 004°23'0 0.0
2016-Dec-05 08:33N 51°54' E 004°23'0 0.0
2016-Dec-05 07:33N 51°54' E 004°23'0 0.0
2016-Dec-05 06:33N 51°54' E 004°23'0 0.0
2016-Dec-05 05:33N 51°54' E 004°23'0 0.0
2016-Dec-05 04:33N 51°54' E 004°23'0 0.0
2016-Dec-05 03:33N 51°54' E 004°23'0 0.0
2016-Dec-05 02:30N 51°54' E 004°23'2 2.6
2016-Dec-05 01:33N 51°54' E 004°19'1111.4
2016-Dec-05 00:33N 51°59' E 004°03'1111.0
2016-Dec-04 23:33N 51°60' E 003°45'1110.8
2016-Dec-04 22:33N 51°56' E 003°28'7 6.7
2016-Dec-04 21:33N 51°51' E 003°21'9 9.5
2016-Dec-04 20:33N 51°41' E 003°18'1312.7
2016-Dec-04 19:33N 51°30' E 003°28'1110.6
2016-Dec-04 18:34N 51°24' E 003°43'7 6.6
2016-Dec-04 17:33N 51°19' E 003°49'6 5.8
2016-Dec-04 16:34N 51°14' E 003°48'3 3.0
2016-Dec-04 15:32N 51°11' E 003°48'0 0.0
2016-Dec-04 14:32N 51°11' E 003°48'0 0.0
2016-Dec-04 13:32N 51°11' E 003°48'0 0.0
2016-Dec-04 12:32N 51°11' E 003°48'0 0.0
2016-Dec-04 11:32N 51°11' E 003°48'0 0.0
2016-Dec-04 10:32N 51°11' E 003°48'0 0.0
2016-Dec-04 09:32N 51°11' E 003°48'0 0.0
2016-Dec-04 08:26N 51°11' E 003°48'0 0.0
2016-Dec-04 07:32N 51°11' E 003°48'0 0.0
2016-Dec-04 06:32N 51°11' E 003°48'0 0.0
2016-Dec-04 05:32N 51°11' E 003°48'0 0.0
2016-Dec-04 04:32N 51°11' E 003°48'0 0.0
2016-Dec-04 03:32N 51°11' E 003°48'0 0.0
2016-Dec-04 02:32N 51°11' E 003°48'0 0.0
2016-Dec-04 01:32N 51°11' E 003°48'0 0.0
2016-Dec-04 00:32N 51°11' E 003°48'0 0.0
2016-Dec-03 23:32N 51°11' E 003°48'0 0.0
2016-Dec-03 22:32N 51°11' E 003°48'0 0.0
2016-Dec-03 21:32N 51°11' E 003°48'0 0.0
2016-Dec-03 20:32N 51°11' E 003°48'0 0.0
2016-Dec-03 19:32N 51°11' E 003°48'0 0.0
2016-Dec-03 18:32N 51°11' E 003°48'0 0.0
2016-Dec-03 17:32N 51°11' E 003°48'0 0.0
2016-Dec-03 16:32N 51°11' E 003°48'0 0.0
2016-Dec-03 15:32N 51°11' E 003°48'0 0.0
2016-Dec-03 14:32N 51°11' E 003°48'0 0.0
2016-Dec-03 13:32N 51°11' E 003°48'0 0.0
2016-Dec-03 12:32N 51°11' E 003°48'0 0.0
2016-Dec-03 11:32N 51°11' E 003°48'0 0.0
2016-Dec-03 10:23N 51°11' E 003°48'0 0.0
2016-Dec-03 09:32N 51°11' E 003°48'0 0.0
2016-Dec-03 08:32N 51°11' E 003°48'0 0.0
2016-Dec-03 07:32N 51°11' E 003°48'0 0.0
2016-Dec-03 06:32N 51°11' E 003°48'0 0.0
2016-Dec-03 05:32N 51°11' E 003°48'0 0.0
2016-Dec-03 04:32N 51°11' E 003°48'0 0.0
2016-Dec-03 03:32N 51°11' E 003°48'0 0.0
2016-Dec-03 02:32N 51°11' E 003°48'0 0.0
2016-Dec-03 01:29N 51°11' E 003°48'0 0.0
2016-Dec-03 00:29N 51°11' E 003°48'0 0.0
2016-Dec-02 23:32N 51°11' E 003°48'0 0.0
2016-Dec-02 22:32N 51°11' E 003°48'0 0.0
2016-Dec-02 21:32N 51°11' E 003°48'0 0.0
2016-Dec-02 20:32N 51°11' E 003°48'0 0.0
2016-Dec-02 19:32N 51°11' E 003°48'0 0.0
2016-Dec-02 18:26N 51°11' E 003°48'0 0.0
2016-Dec-02 17:32N 51°11' E 003°48'0 0.0
2016-Dec-02 16:32N 51°11' E 003°48'0 0.0
2016-Dec-02 15:32N 51°11' E 003°48'0 0.0
2016-Dec-02 14:32N 51°11' E 003°48'0 0.0
2016-Dec-02 13:32N 51°11' E 003°48'0 0.0
2016-Dec-02 12:32N 51°11' E 003°48'0 0.0
2016-Dec-02 11:29N 51°11' E 003°48'0 0.0
2016-Dec-02 10:32N 51°11' E 003°48'0 0.0
2016-Dec-02 09:32N 51°11' E 003°48'0 0.0
2016-Dec-02 08:32N 51°11' E 003°48'1 0.8
2016-Dec-02 07:34N 51°10' E 003°47'1 0.5
2016-Dec-02 06:33N 51°09' E 003°47'0 0.0
2016-Dec-02 05:33N 51°09' E 003°47'0 0.0
2016-Dec-02 04:33N 51°09' E 003°47'0 0.0
2016-Dec-02 03:33N 51°09' E 003°47'0 0.0
2016-Dec-02 02:33N 51°09' E 003°47'0 0.0
2016-Dec-02 01:33N 51°09' E 003°47'0 0.0
2016-Dec-02 00:33N 51°09' E 003°47'0 0.0
2016-Dec-01 23:33N 51°09' E 003°47'0 0.0
2016-Dec-01 22:33N 51°09' E 003°47'0 0.0
2016-Dec-01 21:33N 51°09' E 003°47'0 0.0
2016-Dec-01 20:30N 51°09' E 003°47'0 0.0
2016-Dec-01 19:30N 51°09' E 003°47'0 0.0
2016-Dec-01 18:33N 51°09' E 003°47'0 0.0
2016-Dec-01 17:33N 51°09' E 003°47'0 0.0
2016-Dec-01 16:33N 51°09' E 003°47'0 0.0
2016-Dec-01 15:30N 51°09' E 003°47'0 0.0
2016-Dec-01 14:33N 51°09' E 003°47'0 0.0
2016-Dec-01 13:33N 51°09' E 003°47'0 0.0
2016-Dec-01 12:33N 51°09' E 003°47'0 0.0
2016-Dec-01 11:33N 51°09' E 003°47'0 0.0
2016-Dec-01 10:33N 51°09' E 003°47'0 0.0
2016-Dec-01 09:33N 51°09' E 003°47'0 0.0
2016-Dec-01 08:33N 51°09' E 003°47'0 0.0
2016-Dec-01 07:33N 51°09' E 003°47'0 0.0
2016-Dec-01 06:33N 51°09' E 003°47'0 0.0
2016-Dec-01 05:33N 51°09' E 003°47'0 0.0
2016-Dec-01 04:33N 51°09' E 003°47'0 0.0
2016-Dec-01 03:33N 51°09' E 003°47'0 0.0
2016-Dec-01 02:33N 51°09' E 003°47'0 0.1
2016-Dec-01 01:34N 51°09' E 003°47'7 7.3
2016-Dec-01 00:34N 51°16' E 003°50'3 3.4
2016-Nov-30 23:34N 51°20' E 003°49'1 1.2
2016-Nov-30 22:34N 51°21' E 003°48'9 8.7
2016-Nov-30 21:33N 51°26' E 003°37'1211.9
2016-Nov-30 20:34N 51°24' E 003°18'1312.8
2016-Nov-30 19:33N 51°23' E 002°58'1211.8
2016-Nov-30 18:33N 51°22' E 002°39'5 4.7
2016-Nov-30 17:33N 51°22' E 002°32'7 6.7
2016-Nov-30 16:33N 51°19' E 002°21'1111.3
2016-Nov-30 15:33N 51°14' E 002°06'1616.3
2016-Nov-30 14:33N 51°05' E 001°44'1717.3
2016-Nov-30 13:33N 50°51' E 001°27'4615.4
2016-Nov-30 10:33N 50°24' E 000°27'1716.9
2016-Nov-30 09:33N 50°21' E 000°01'1717.5
2016-Nov-30 08:33N 50°16' W 000°25'1817.8
2016-Nov-30 07:34N 50°11' W 000°52'1717.4
2016-Nov-30 06:33N 50°07' W 001°18'1616.3
2016-Nov-30 05:33N 50°03' W 001°43'1515.0
2016-Nov-30 04:33N 49°58' W 002°05'1413.7
2016-Nov-30 03:33N 49°54' W 002°25'1313.0
2016-Nov-30 02:33N 49°51' W 002°45'1312.8
2016-Nov-30 01:33N 49°45' W 003°03'1313.0
2016-Nov-30 00:33N 49°39' W 003°20'1313.0
2016-Nov-29 23:33N 49°32' W 003°37'1312.8
2016-Nov-29 22:32N 49°26' W 003°55'1212.7
2016-Nov-29 21:33N 49°19' W 004°11'1212.5
2016-Nov-29 20:33N 49°13' W 004°28'1512.5
2016-Nov-29 19:22N 49°07' W 004°48'1012.9
2016-Nov-29 18:33N 49°02' W 005°02'1313.3
2016-Nov-29 17:33N 48°55' W 005°19'1413.9
2016-Nov-29 16:33N 48°47' W 005°36'4314.4
2016-Nov-29 13:33N 48°09' W 006°08'18913.9
2016-Nov-29 00:00N 45°18' W 008°06'   060 / 181020.310.8 11.5 4.7

Dump ship's entire track history